X  Fechar Metar - Info de Aeroporto     LPMT Montijo Air Base
Temperatura
°C Temperatura
°C Ptº Orvalho
0% Humidade



Vento
13 MPH
21 KM/H
6 M/S
11 NÓS



330°
NNO
Condições Atuais

Limpo Limpo
Pressão (hPa) - (inHg)
Visibilidade 6.2 (milha) - 10 (km)
Aeroporto
Código-Aeroporto LPMT

Localização: Montijo Air Base
Distância: 6 (mi)

Metar:
LPMT 300500Z 3006/0106 33011KT CAVOK BECMG 0100/0102 01005KT

Hora: 2022-09-30 06:00 WEST